createdAt,value
2022-12-22T00:00:38.325Z,28.02
2022-12-22T00:03:29.739Z,32.80
2022-12-22T00:06:15.815Z,31.73
2022-12-22T00:09:05.430Z,27.37
2022-12-22T00:11:52.146Z,30.58
2022-12-22T00:14:38.124Z,27.17
2022-12-22T00:17:44.664Z,27.10
2022-12-22T00:20:31.646Z,27.25
2022-12-22T00:23:17.917Z,29.97
2022-12-22T00:26:04.112Z,31.38
2022-12-22T00:28:50.000Z,29.40
2022-12-22T00:31:35.853Z,33.83
2022-12-22T00:34:25.657Z,28.63
2022-12-22T00:37:13.210Z,28.63
2022-12-22T00:39:58.911Z,28.27
2022-12-22T00:42:45.326Z,33.38
2022-12-22T00:45:31.409Z,30.27
2022-12-22T00:48:18.193Z,28.30
2022-12-22T00:51:05.590Z,29.25
2022-12-22T00:53:51.273Z,29.07
2022-12-22T00:56:37.310Z,26.95
2022-12-22T00:59:23.496Z,28.17
2022-12-22T01:02:09.572Z,28.00
2022-12-22T01:04:55.202Z,26.77
2022-12-22T01:07:43.315Z,29.83
2022-12-22T01:10:31.759Z,29.00
2022-12-22T01:13:18.455Z,29.98
2022-12-22T01:16:04.139Z,27.17
2022-12-22T01:18:49.762Z,28.48
2022-12-22T01:21:36.823Z,27.40
2022-12-22T01:24:29.674Z,29.13
2022-12-22T01:27:15.381Z,26.95
2022-12-22T01:30:01.320Z,26.90
2022-12-22T01:32:47.567Z,27.15
2022-12-22T01:35:38.318Z,29.45
2022-12-22T01:38:24.208Z,27.30
2022-12-22T01:41:12.028Z,25.80
2022-12-22T01:43:58.705Z,28.45
2022-12-22T01:46:46.797Z,28.65
2022-12-22T01:49:34.814Z,30.63
2022-12-22T01:52:21.133Z,28.50
2022-12-22T01:55:07.270Z,30.30
2022-12-22T01:57:55.160Z,27.80
2022-12-22T02:00:41.437Z,27.05
2022-12-22T02:03:34.306Z,28.47
2022-12-22T02:06:31.411Z,24.10
2022-12-22T02:09:32.759Z,24.83
2022-12-22T02:12:23.811Z,28.13
2022-12-22T02:15:19.638Z,24.63
2022-12-22T02:18:12.166Z,24.48
2022-12-22T02:21:00.184Z,26.17
2022-12-22T02:24:03.351Z,25.95
2022-12-22T02:26:52.482Z,27.02
2022-12-22T02:29:41.152Z,28.13
2022-12-22T02:32:27.220Z,24.98
2022-12-22T02:35:12.803Z,22.70
2022-12-22T02:38:04.342Z,25.85
2022-12-22T02:40:54.307Z,22.58
2022-12-22T02:43:53.494Z,25.75
2022-12-22T02:46:43.166Z,24.58
2022-12-22T02:49:36.088Z,23.10
2022-12-22T02:52:29.242Z,23.52
2022-12-22T02:55:15.160Z,22.27
2022-12-22T02:58:00.606Z,26.13
2022-12-22T03:00:48.499Z,24.42
2022-12-22T03:03:34.297Z,23.70
2022-12-22T03:06:20.096Z,23.45
2022-12-22T03:09:05.553Z,23.92
2022-12-22T03:11:51.514Z,23.73
2022-12-22T03:14:37.109Z,25.05
2022-12-22T03:17:24.722Z,26.60
2022-12-22T03:20:10.086Z,23.90
2022-12-22T03:22:55.782Z,26.08
2022-12-22T03:25:41.895Z,26.77
2022-12-22T03:28:11.539Z,23.35
2022-12-22T03:30:40.711Z,23.15
2022-12-22T03:33:10.470Z,24.83
2022-12-22T03:35:38.713Z,24.58
2022-12-22T03:38:07.044Z,24.30
2022-12-22T03:40:35.353Z,27.37
2022-12-22T03:43:20.793Z,24.45
2022-12-22T03:46:06.304Z,25.52
2022-12-22T03:48:36.057Z,24.00
2022-12-22T03:51:04.530Z,26.92
2022-12-22T03:53:32.966Z,26.17
2022-12-22T03:56:07.279Z,24.08
2022-12-22T03:58:36.220Z,25.65
2022-12-22T04:01:08.153Z,26.95
2022-12-22T04:03:38.143Z,25.95
2022-12-22T04:06:06.649Z,28.35
2022-12-22T04:08:35.388Z,26.50
2022-12-22T04:11:20.931Z,28.05
2022-12-22T04:13:49.358Z,27.92
2022-12-22T04:16:17.782Z,30.23
2022-12-22T04:18:47.489Z,29.83
2022-12-22T04:21:15.987Z,27.23
2022-12-22T04:23:44.373Z,28.48
2022-12-22T04:26:12.765Z,26.10
2022-12-22T04:28:41.088Z,28.15
2022-12-22T04:31:09.492Z,31.40
2022-12-22T04:33:37.816Z,27.87
2022-12-22T04:36:08.300Z,27.27
2022-12-22T04:38:36.665Z,26.90
2022-12-22T04:41:05.567Z,31.27
2022-12-22T04:43:39.383Z,27.25
2022-12-22T04:46:08.299Z,29.70
2022-12-22T04:48:37.025Z,27.95
2022-12-22T04:51:07.578Z,28.47
2022-12-22T04:53:36.048Z,26.80
2022-12-22T04:56:05.930Z,26.23
2022-12-22T04:58:35.041Z,29.25
2022-12-22T05:01:10.670Z,28.05
2022-12-22T05:03:39.712Z,25.33
2022-12-22T05:06:09.843Z,28.20
2022-12-22T05:08:38.394Z,31.67
2022-12-22T05:11:06.983Z,32.80
2022-12-22T05:13:35.366Z,30.73
2022-12-22T05:16:08.063Z,30.17
2022-12-22T05:18:37.437Z,28.88
2022-12-22T05:21:08.264Z,29.17
2022-12-22T05:23:38.236Z,28.08
2022-12-22T05:26:06.974Z,25.67
2022-12-22T05:28:35.413Z,29.15
2022-12-22T05:31:05.656Z,29.55
2022-12-22T05:33:34.063Z,30.40
2022-12-22T05:36:03.138Z,29.85
2022-12-22T05:38:31.573Z,27.90
2022-12-22T05:41:04.348Z,30.23
2022-12-22T05:43:33.415Z,30.30
2022-12-22T05:46:03.808Z,27.73
2022-12-22T05:48:37.919Z,31.98
2022-12-22T05:51:08.290Z,31.45
2022-12-22T05:53:37.104Z,35.47
2022-12-22T05:56:08.356Z,30.10
2022-12-22T05:58:39.286Z,29.92
2022-12-22T06:01:08.606Z,29.52
2022-12-22T06:03:37.512Z,31.95
2022-12-22T06:06:06.669Z,30.25
2022-12-22T06:08:35.131Z,28.98
2022-12-22T06:11:03.521Z,30.23
2022-12-22T06:13:33.614Z,28.52
2022-12-22T06:16:03.395Z,29.60
2022-12-22T06:18:32.543Z,31.05
2022-12-22T06:21:00.926Z,29.88
2022-12-22T06:23:30.422Z,32.10
2022-12-22T06:25:59.970Z,30.17
2022-12-22T06:28:29.142Z,29.65
2022-12-22T06:30:59.247Z,29.13
2022-12-22T06:33:27.820Z,25.33
2022-12-22T06:35:59.006Z,28.15
2022-12-22T06:38:29.153Z,28.92
2022-12-22T06:40:57.572Z,29.38
2022-12-22T06:43:25.258Z,29.10
2022-12-22T06:45:55.392Z,29.90
2022-12-22T06:48:25.417Z,27.73
2022-12-22T06:50:53.758Z,28.63
2022-12-22T06:53:22.099Z,27.42
2022-12-22T06:55:50.593Z,30.75
2022-12-22T06:58:19.193Z,28.10
2022-12-22T07:00:49.898Z,28.58
2022-12-22T07:03:18.385Z,30.52
2022-12-22T07:05:48.432Z,29.10
2022-12-22T07:08:16.900Z,31.67
2022-12-22T07:11:01.637Z,28.25
2022-12-22T07:13:34.318Z,30.95
2022-12-22T07:16:03.812Z,29.25
2022-12-22T07:18:33.382Z,27.40
2022-12-22T07:21:05.246Z,26.83
2022-12-22T07:23:35.641Z,30.73
2022-12-22T07:26:04.541Z,30.05
2022-12-22T07:28:34.301Z,31.77
2022-12-22T07:31:02.944Z,31.60
2022-12-22T07:33:31.615Z,27.98
2022-12-22T07:36:06.739Z,26.67
2022-12-22T07:38:36.827Z,31.15
2022-12-22T07:41:26.215Z,28.80
2022-12-22T07:43:53.785Z,28.77
2022-12-22T07:46:22.465Z,33.97
2022-12-22T07:49:09.087Z,37.40
2022-12-22T07:51:40.954Z,35.58
2022-12-22T07:54:10.440Z,36.42
2022-12-22T07:56:39.333Z,40.72
2022-12-22T07:59:08.625Z,35.42
2022-12-22T08:01:37.264Z,39.27
2022-12-22T08:04:06.525Z,35.80
2022-12-22T08:06:35.458Z,32.50
2022-12-22T08:09:06.425Z,38.10
2022-12-22T08:11:35.059Z,37.17
2022-12-22T08:14:04.845Z,40.60
2022-12-22T08:16:33.358Z,40.40
2022-12-22T08:19:03.827Z,41.37
2022-12-22T08:21:33.456Z,39.90
2022-12-22T08:24:02.245Z,34.60
2022-12-22T08:26:36.567Z,27.67
2022-12-22T08:29:19.258Z,27.70
2022-12-22T08:31:56.218Z,27.47
2022-12-22T08:34:24.639Z,30.27
2022-12-22T08:36:56.676Z,33.37
2022-12-22T08:39:27.567Z,36.07
2022-12-22T08:41:57.778Z,34.17
2022-12-22T08:44:27.485Z,35.60
2022-12-22T08:46:56.868Z,29.97
2022-12-22T08:49:25.477Z,33.10
2022-12-22T08:51:55.477Z,31.03
2022-12-22T08:54:23.903Z,35.60
2022-12-22T08:56:53.115Z,37.33
2022-12-22T08:59:23.123Z,30.83
2022-12-22T09:01:52.918Z,34.83
2022-12-22T09:04:22.837Z,33.07
2022-12-22T09:06:53.035Z,32.07
2022-12-22T09:09:21.893Z,32.53
2022-12-22T09:11:50.503Z,35.30
2022-12-22T09:14:19.095Z,37.40
2022-12-22T09:16:49.087Z,37.28
2022-12-22T09:19:17.505Z,34.07
2022-12-22T09:21:46.238Z,34.00
2022-12-22T09:24:18.110Z,32.27
2022-12-22T09:26:46.690Z,33.60
2022-12-22T09:29:16.416Z,31.40
2022-12-22T09:31:45.031Z,32.97
2022-12-22T09:34:18.321Z,35.10
2022-12-22T09:36:48.737Z,39.73
2022-12-22T09:39:18.404Z,34.83
2022-12-22T09:41:52.152Z,35.27
2022-12-22T09:44:26.002Z,37.07
2022-12-22T09:46:55.973Z,34.27
2022-12-22T09:49:26.326Z,33.63
2022-12-22T09:51:58.001Z,32.93
2022-12-22T09:54:27.048Z,28.33
2022-12-22T09:56:55.471Z,29.33
2022-12-22T09:59:29.096Z,27.47
2022-12-22T10:02:20.656Z,29.37
2022-12-22T10:04:58.639Z,28.07
2022-12-22T10:07:33.505Z,28.83
2022-12-22T10:10:13.688Z,30.67
2022-12-22T10:12:43.633Z,29.30
2022-12-22T10:15:21.426Z,27.63
2022-12-22T10:17:52.273Z,31.37
2022-12-22T10:20:27.434Z,27.80
2022-12-22T10:22:59.224Z,26.47
2022-12-22T10:25:45.077Z,27.87
2022-12-22T10:28:25.245Z,26.37
2022-12-22T10:31:13.233Z,26.90
2022-12-22T10:33:47.068Z,26.00
2022-12-22T10:36:22.384Z,26.37
2022-12-22T10:38:57.735Z,26.03
2022-12-22T10:41:27.809Z,24.50
2022-12-22T10:43:57.655Z,24.37
2022-12-22T10:46:35.108Z,26.30
2022-12-22T10:49:19.997Z,27.10
2022-12-22T10:51:53.227Z,25.70
2022-12-22T10:54:33.184Z,27.33
2022-12-22T10:57:03.951Z,24.57
2022-12-22T10:59:33.815Z,26.73
2022-12-22T11:02:33.076Z,27.00
2022-12-22T11:05:07.741Z,27.50
2022-12-22T11:07:40.410Z,28.27
2022-12-22T11:10:21.328Z,25.93
2022-12-22T11:13:13.528Z,28.13
2022-12-22T11:15:48.882Z,30.13
2022-12-22T11:18:37.767Z,28.30
2022-12-22T11:21:10.469Z,28.63
2022-12-22T11:23:45.524Z,29.27
2022-12-22T11:26:20.096Z,29.87
2022-12-22T11:28:57.243Z,28.33
2022-12-22T11:31:38.788Z,26.07
2022-12-22T11:34:20.890Z,25.23
2022-12-22T11:37:05.634Z,23.30
2022-12-22T11:39:40.866Z,23.67
2022-12-22T11:42:23.303Z,22.73
2022-12-22T11:44:56.535Z,20.30
2022-12-22T11:47:30.687Z,20.60
2022-12-22T11:50:52.628Z,21.63
2022-12-22T11:53:29.724Z,19.70
2022-12-22T11:56:08.231Z,20.83
2022-12-22T11:58:49.837Z,20.87
2022-12-22T12:01:36.901Z,23.73
2022-12-22T12:04:33.907Z,20.80
2022-12-22T12:07:14.219Z,23.00
2022-12-22T12:09:48.890Z,22.20
2022-12-22T12:12:23.029Z,22.00
2022-12-22T12:15:00.147Z,23.87
2022-12-22T12:17:37.492Z,21.33
2022-12-22T12:20:31.013Z,21.60
2022-12-22T12:23:08.526Z,22.77
2022-12-22T12:25:40.789Z,21.87
2022-12-22T12:28:22.711Z,20.90
2022-12-22T12:30:55.231Z,22.60
2022-12-22T12:33:32.866Z,23.07
2022-12-22T12:36:04.629Z,19.33
2022-12-22T12:39:06.945Z,21.70
2022-12-22T12:41:34.070Z,20.17
2022-12-22T12:44:04.991Z,18.87
2022-12-22T12:47:10.862Z,21.33
2022-12-22T12:49:59.661Z,20.93
2022-12-22T12:53:16.801Z,19.43
2022-12-22T12:56:06.619Z,17.83
2022-12-22T12:58:50.657Z,19.30
2022-12-22T13:01:56.236Z,18.57
2022-12-22T13:05:06.147Z,19.87
2022-12-22T13:08:08.202Z,19.87
2022-12-22T13:10:39.728Z,18.07
2022-12-22T13:13:12.476Z,16.87
2022-12-22T13:15:42.323Z,19.60
2022-12-22T13:18:47.495Z,17.17
2022-12-22T13:24:25.144Z,19.70
2022-12-22T13:26:56.219Z,18.43
2022-12-22T13:29:29.641Z,15.83
2022-12-22T13:32:02.348Z,17.77
2022-12-22T13:35:04.281Z,17.07
2022-12-22T13:37:29.764Z,16.80
2022-12-22T13:40:21.210Z,15.30
2022-12-22T13:42:52.134Z,17.10
2022-12-22T13:45:30.425Z,18.17
2022-12-22T13:48:00.905Z,17.90
2022-12-22T13:50:32.760Z,17.70
2022-12-22T13:53:02.671Z,18.23
2022-12-22T13:55:33.865Z,18.30
2022-12-22T13:58:09.364Z,18.57
2022-12-22T14:00:40.065Z,18.63
2022-12-22T14:03:41.850Z,18.37
2022-12-22T14:06:21.661Z,19.50
2022-12-22T14:08:50.026Z,20.10
2022-12-22T14:11:20.237Z,18.37
2022-12-22T14:13:49.089Z,19.33
2022-12-22T14:16:25.067Z,19.73
2022-12-22T14:18:54.156Z,19.83
2022-12-22T14:21:22.946Z,21.07
2022-12-22T14:23:51.390Z,19.80
2022-12-22T14:26:24.517Z,19.00
2022-12-22T14:28:54.823Z,20.37
2022-12-22T14:31:23.173Z,21.50
2022-12-22T14:33:55.635Z,22.17
2022-12-22T14:36:25.960Z,23.00
2022-12-22T14:39:02.300Z,23.67
2022-12-22T14:41:51.519Z,11.10
2022-12-22T14:44:23.699Z,22.37
2022-12-22T14:47:07.044Z,23.90
2022-12-22T14:49:36.340Z,25.50
2022-12-22T14:52:19.682Z,25.80
2022-12-22T14:54:49.244Z,30.30
2022-12-22T14:57:30.443Z,29.10
2022-12-22T15:00:07.805Z,28.80
2022-12-22T15:02:40.098Z,28.00
2022-12-22T15:05:17.812Z,23.77
2022-12-22T15:08:08.351Z,24.37
2022-12-22T15:10:42.944Z,20.17
2022-12-22T15:13:18.031Z,21.33
2022-12-22T15:15:46.527Z,18.13
2022-12-22T15:18:16.253Z,16.50
2022-12-22T15:20:45.208Z,14.37
2022-12-22T15:23:17.172Z,14.97
2022-12-22T15:25:46.822Z,18.93
2022-12-22T15:28:16.709Z,16.70
2022-12-22T15:30:46.072Z,17.60
2022-12-22T15:33:16.204Z,17.80
2022-12-22T15:35:45.228Z,19.80
2022-12-22T15:38:15.393Z,18.73
2022-12-22T15:40:44.689Z,19.17
2022-12-22T15:43:53.946Z,22.03
2022-12-22T15:46:07.507Z,24.80
2022-12-22T15:48:37.928Z,23.70
2022-12-22T15:51:09.996Z,22.13
2022-12-22T15:53:38.529Z,24.57
2022-12-22T15:56:17.376Z,23.73
2022-12-22T15:58:47.089Z,22.10
2022-12-22T16:01:17.459Z,24.40
2022-12-22T16:03:46.933Z,22.30
2022-12-22T16:06:16.927Z,20.07
2022-12-22T16:08:50.525Z,16.87
2022-12-22T16:11:19.730Z,18.80
2022-12-22T16:13:48.829Z,21.30
2022-12-22T16:16:19.354Z,20.90
2022-12-22T16:18:48.784Z,22.73
2022-12-22T16:21:19.044Z,23.73
2022-12-22T16:23:49.675Z,22.83
2022-12-22T16:26:20.223Z,24.23
2022-12-22T16:28:48.853Z,24.27
2022-12-22T16:31:20.699Z,21.87
2022-12-22T16:33:49.873Z,24.23
2022-12-22T16:36:19.603Z,24.50
2022-12-22T16:38:48.841Z,25.77
2022-12-22T16:41:20.800Z,25.00
2022-12-22T16:43:49.775Z,26.90
2022-12-22T16:46:22.196Z,25.20
2022-12-22T16:48:52.440Z,27.00
2022-12-22T16:51:24.368Z,23.77
2022-12-22T16:53:53.293Z,26.60
2022-12-22T16:56:23.708Z,27.17
2022-12-22T16:58:52.400Z,27.57
2022-12-22T17:01:35.927Z,27.23
2022-12-22T17:04:09.091Z,27.83
2022-12-22T17:06:38.122Z,29.03
2022-12-22T17:09:11.413Z,31.00
2022-12-22T17:11:40.047Z,37.30
2022-12-22T17:14:18.229Z,41.27
2022-12-22T17:16:48.055Z,37.33
2022-12-22T17:19:18.197Z,32.70
2022-12-22T17:21:46.853Z,32.30
2022-12-22T17:24:22.849Z,34.60
2022-12-22T17:26:56.240Z,31.10
2022-12-22T17:29:25.792Z,29.97
2022-12-22T17:31:57.010Z,31.97
2022-12-22T17:34:25.647Z,32.27
2022-12-22T17:36:56.937Z,33.53
2022-12-22T17:39:26.890Z,32.10
2022-12-22T17:41:57.282Z,29.70
2022-12-22T17:44:28.780Z,30.03
2022-12-22T17:46:58.838Z,31.30
2022-12-22T17:49:27.846Z,28.50
2022-12-22T17:51:56.294Z,31.20
2022-12-22T17:54:26.106Z,33.80
2022-12-22T17:56:58.446Z,34.40
2022-12-22T17:59:27.271Z,30.97
2022-12-22T18:01:55.790Z,33.23
2022-12-22T18:04:25.971Z,33.10
2022-12-22T18:06:54.465Z,34.33
2022-12-22T18:09:26.234Z,32.83
2022-12-22T18:11:56.017Z,33.73
2022-12-22T18:14:24.823Z,35.10
2022-12-22T18:16:53.443Z,33.27
2022-12-22T18:19:22.107Z,30.20
2022-12-22T18:21:52.272Z,31.00
2022-12-22T18:24:21.466Z,31.50
2022-12-22T18:26:50.145Z,35.37
2022-12-22T18:29:19.146Z,33.17
2022-12-22T18:31:47.547Z,35.13
2022-12-22T18:34:16.271Z,31.63
2022-12-22T18:36:45.868Z,33.00
2022-12-22T18:39:19.170Z,33.33
2022-12-22T18:41:48.014Z,30.53
2022-12-22T18:44:18.173Z,30.43
2022-12-22T18:46:47.150Z,29.13
2022-12-22T18:49:16.297Z,27.77
2022-12-22T18:51:45.694Z,29.10
2022-12-22T18:54:23.952Z,30.07
2022-12-22T18:56:54.077Z,30.67
2022-12-22T18:59:25.176Z,29.57
2022-12-22T19:01:54.036Z,31.00
2022-12-22T19:04:22.565Z,31.20
2022-12-22T19:06:51.541Z,29.60
2022-12-22T19:09:23.417Z,32.23
2022-12-22T19:11:52.757Z,31.73
2022-12-22T19:14:22.501Z,32.60
2022-12-22T19:16:52.384Z,27.63
2022-12-22T19:19:22.938Z,31.52
2022-12-22T19:21:53.786Z,31.80
2022-12-22T19:24:26.011Z,33.10
2022-12-22T19:26:54.889Z,31.37
2022-12-22T19:29:23.987Z,33.93
2022-12-22T19:31:52.751Z,32.17
2022-12-22T19:34:22.485Z,30.77
2022-12-22T19:36:52.186Z,31.30
2022-12-22T19:39:20.606Z,28.90
2022-12-22T19:41:52.348Z,26.83
2022-12-22T19:44:23.773Z,25.50
2022-12-22T19:46:53.086Z,26.20
2022-12-22T19:49:27.139Z,24.63
2022-12-22T19:51:56.749Z,26.45
2022-12-22T19:54:25.640Z,31.57
2022-12-22T19:56:56.890Z,30.30
2022-12-22T19:59:37.290Z,31.50
2022-12-22T20:02:25.440Z,17.87
2022-12-22T20:04:54.880Z,25.05
2022-12-22T20:07:25.355Z,27.38
2022-12-22T20:09:54.420Z,25.00
2022-12-22T20:12:27.828Z,25.60
2022-12-22T20:14:56.751Z,24.43
2022-12-22T20:17:26.123Z,28.27
2022-12-22T20:19:55.214Z,14.33
2022-12-22T20:22:25.988Z,15.52
2022-12-22T20:24:55.688Z,10.83
2022-12-22T20:27:30.636Z,18.90
2022-12-22T20:29:59.906Z,25.27
2022-12-22T20:32:29.015Z,24.23
2022-12-22T20:34:57.727Z,23.30
2022-12-22T20:37:26.738Z,24.45
2022-12-22T20:39:56.394Z,30.20
2022-12-22T20:42:27.565Z,23.90
2022-12-22T20:45:03.977Z,21.10
2022-12-22T20:47:34.301Z,28.73
2022-12-22T20:50:03.093Z,28.08
2022-12-22T20:52:32.681Z,23.43
2022-12-22T20:55:03.100Z,23.90
2022-12-22T20:57:32.835Z,22.73
2022-12-22T21:00:01.665Z,25.83
2022-12-22T21:02:30.724Z,22.40
2022-12-22T21:04:59.714Z,22.20
2022-12-22T21:07:28.296Z,19.70
2022-12-22T21:09:57.179Z,19.10
2022-12-22T21:12:25.893Z,13.80
2022-12-22T21:14:55.846Z,14.68
2022-12-22T21:17:25.716Z,19.77
2022-12-22T21:19:56.427Z,22.85
2022-12-22T21:22:24.811Z,25.87
2022-12-22T21:24:53.139Z,26.13
2022-12-22T21:27:22.114Z,25.93
2022-12-22T21:29:50.795Z,23.00
2022-12-22T21:32:21.911Z,24.33
2022-12-22T21:34:51.359Z,24.10
2022-12-22T21:37:20.471Z,29.67
2022-12-22T21:39:48.817Z,23.10
2022-12-22T21:42:17.972Z,24.10
2022-12-22T21:44:46.587Z,27.60
2022-12-22T21:47:16.171Z,32.73
2022-12-22T21:49:45.970Z,21.73
2022-12-22T21:52:14.254Z,24.50
2022-12-22T21:54:42.646Z,24.53
2022-12-22T21:57:15.933Z,23.63
2022-12-22T21:59:44.241Z,10.18
2022-12-22T22:02:16.532Z,20.00
2022-12-22T22:04:54.612Z,24.27
2022-12-22T22:07:24.008Z,19.80
2022-12-22T22:09:52.608Z,20.20
2022-12-22T22:12:38.082Z,20.53
2022-12-22T22:15:08.294Z,18.67
2022-12-22T22:17:36.706Z,21.10
2022-12-22T22:20:09.966Z,20.40
2022-12-22T22:22:38.300Z,19.93
2022-12-22T22:25:07.841Z,20.50
2022-12-22T22:27:36.209Z,20.67
2022-12-22T22:30:05.335Z,18.93
2022-12-22T22:32:33.926Z,18.70
2022-12-22T22:35:02.211Z,20.37
2022-12-22T22:37:33.122Z,19.53
2022-12-22T22:40:01.574Z,18.93
2022-12-22T22:42:29.932Z,17.67
2022-12-22T22:44:58.422Z,18.93
2022-12-22T22:47:26.842Z,16.67
2022-12-22T22:49:55.238Z,16.57
2022-12-22T22:52:23.710Z,21.60
2022-12-22T22:54:58.153Z,26.30
2022-12-22T22:57:26.492Z,29.30
2022-12-22T22:59:55.956Z,31.42
2022-12-22T23:02:24.677Z,29.57
2022-12-22T23:04:53.138Z,30.60
2022-12-22T23:07:21.629Z,33.07
2022-12-22T23:09:50.107Z,28.95
2022-12-22T23:12:19.979Z,36.63
2022-12-22T23:14:48.456Z,31.07
2022-12-22T23:17:16.777Z,29.00
2022-12-22T23:19:47.069Z,33.10
2022-12-22T23:22:15.404Z,29.80
2022-12-22T23:24:43.703Z,32.57
2022-12-22T23:27:12.855Z,30.57
2022-12-22T23:29:43.108Z,36.38
2022-12-22T23:32:11.469Z,36.53
2022-12-22T23:34:39.861Z,40.10
2022-12-22T23:37:18.676Z,45.63
2022-12-22T23:39:47.803Z,42.00
2022-12-22T23:42:16.254Z,40.85
2022-12-22T23:44:46.064Z,46.00
2022-12-22T23:47:14.532Z,44.45
2022-12-22T23:49:42.941Z,47.03
2022-12-22T23:52:11.293Z,44.90
2022-12-22T23:54:41.474Z,45.60
2022-12-22T23:57:10.096Z,44.55
2022-12-22T23:59:38.554Z,44.47
